sensor_id;sensor_type;location;lat;lon;timestamp;P1;durP1;ratioP1;P2;durP2;ratioP2
15557;SDS011;7880;50.110;9.372;2022-12-18T00:04:25;13.692307692307692;;;7.099999999999999;;
15557;SDS011;7880;50.110;9.372;2022-12-18T00:09:29;16.853846153846156;;;5.6;;
15557;SDS011;7880;50.110;9.372;2022-12-18T00:14:33;12.330769230769231;;;5.561538461538462;;
15557;SDS011;7880;50.110;9.372;2022-12-18T00:19:37;9.969230769230773;;;5.0;;
15557;SDS011;7880;50.110;9.372;2022-12-18T00:24:41;10.161538461538461;;;5.238461538461538;;
15557;SDS011;7880;50.110;9.372;2022-12-18T00:29:44;13.800000000000002;;;5.8769230769230765;;
15557;SDS011;7880;50.110;9.372;2022-12-18T00:34:54;11.2;;;5.338461538461539;;
15557;SDS011;7880;50.110;9.372;2022-12-18T00:39:52;11.015384615384615;;;4.738461538461538;;
15557;SDS011;7880;50.110;9.372;2022-12-18T00:44:55;12.04615384615385;;;5.299999999999999;;
15557;SDS011;7880;50.110;9.372;2022-12-18T00:49:59;12.776923076923076;;;6.6923076923076925;;
15557;SDS011;7880;50.110;9.372;2022-12-18T00:55:04;14.276923076923081;;;6.115384615384614;;
15557;SDS011;7880;50.110;9.372;2022-12-18T01:00:09;9.984615384615385;;;5.523076923076925;;
15557;SDS011;7880;50.110;9.372;2022-12-18T01:05:11;15.907692307692304;;;5.200000000000001;;
15557;SDS011;7880;50.110;9.372;2022-12-18T01:10:17;13.076923076923073;;;5.776923076923079;;
15557;SDS011;7880;50.110;9.372;2022-12-18T01:15:29;10.615384615384615;;;6.176923076923076;;
15557;SDS011;7880;50.110;9.372;2022-12-18T01:20:24;20.93846153846154;;;7.892307692307691;;
15557;SDS011;7880;50.110;9.372;2022-12-18T01:25:28;17.25384615384615;;;7.0384615384615365;;
15557;SDS011;7880;50.110;9.372;2022-12-18T01:30:31;12.107692307692307;;;5.953846153846153;;
15557;SDS011;7880;50.110;9.372;2022-12-18T01:35:39;13.099999999999996;;;6.8769230769230765;;
15557;SDS011;7880;50.110;9.372;2022-12-18T01:40:39;14.83076923076923;;;7.076923076923078;;
15557;SDS011;7880;50.110;9.372;2022-12-18T01:45:44;14.64615384615384;;;6.9769230769230735;;
15557;SDS011;7880;50.110;9.372;2022-12-18T01:50:50;12.638461538461534;;;5.538461538461537;;
15557;SDS011;7880;50.110;9.372;2022-12-18T01:55:53;12.900000000000004;;;6.276923076923079;;
15557;SDS011;7880;50.110;9.372;2022-12-18T02:00:45;20.423076923076927;;;8.900000000000002;;
15557;SDS011;7880;50.110;9.372;2022-12-18T02:05:51;9.669230769230769;;;6.053846153846152;;
15557;SDS011;7880;50.110;9.372;2022-12-18T02:10:56;12.246153846153849;;;5.976923076923075;;
15557;SDS011;7880;50.110;9.372;2022-12-18T02:16:00;11.63076923076923;;;6.353846153846154;;
15557;SDS011;7880;50.110;9.372;2022-12-18T02:21:11;12.084615384615384;;;6.015384615384615;;
15557;SDS011;7880;50.110;9.372;2022-12-18T02:26:07;10.476923076923075;;;5.615384615384614;;
15557;SDS011;7880;50.110;9.372;2022-12-18T02:31:13;13.900000000000004;;;6.1;;
15557;SDS011;7880;50.110;9.372;2022-12-18T02:36:15;12.853846153846158;;;5.853846153846154;;
15557;SDS011;7880;50.110;9.372;2022-12-18T02:41:21;15.976923076923075;;;7.5;;
15557;SDS011;7880;50.110;9.372;2022-12-18T02:46:28;15.984615384615381;;;6.276923076923079;;
15557;SDS011;7880;50.110;9.372;2022-12-18T02:51:40;16.069230769230764;;;7.5;;
15557;SDS011;7880;50.110;9.372;2022-12-18T02:56:44;9.630769230769232;;;5.953846153846154;;
15557;SDS011;7880;50.110;9.372;2022-12-18T03:01:42;14.553846153846159;;;6.953846153846154;;
15557;SDS011;7880;50.110;9.372;2022-12-18T03:06:46;13.03076923076923;;;6.299999999999998;;
15557;SDS011;7880;50.110;9.372;2022-12-18T03:12:23;13.553846153846159;;;7.215384615384618;;
15557;SDS011;7880;50.110;9.372;2022-12-18T03:17:11;11.723076923076919;;;6.700000000000002;;
15557;SDS011;7880;50.110;9.372;2022-12-18T03:22:12;16.699999999999996;;;7.0384615384615365;;
15557;SDS011;7880;50.110;9.372;2022-12-18T03:27:18;11.161538461538461;;;5.761538461538462;;
15557;SDS011;7880;50.110;9.372;2022-12-18T03:32:25;13.430769230769227;;;6.884615384615383;;
15557;SDS011;7880;50.110;9.372;2022-12-18T03:37:25;13.10769230769231;;;5.6;;
15557;SDS011;7880;50.110;9.372;2022-12-18T03:42:29;13.169230769230769;;;6.561538461538462;;
15557;SDS011;7880;50.110;9.372;2022-12-18T03:48:12;14.60769230769231;;;6.799999999999998;;
15557;SDS011;7880;50.110;9.372;2022-12-18T03:52:58;13.638461538461533;;;6.676923076923076;;
15557;SDS011;7880;50.110;9.372;2022-12-18T03:58:01;19.207692307692305;;;6.953846153846154;;
15557;SDS011;7880;50.110;9.372;2022-12-18T04:03:09;14.0;;;6.076923076923078;;
15557;SDS011;7880;50.110;9.372;2022-12-18T04:08:21;16.184615384615384;;;6.700000000000002;;
15557;SDS011;7880;50.110;9.372;2022-12-18T04:13:22;14.546153846153853;;;7.323076923076924;;
15557;SDS011;7880;50.110;9.372;2022-12-18T04:18:20;15.199999999999998;;;7.238461538461538;;
15557;SDS011;7880;50.110;9.372;2022-12-18T04:23:24;12.592307692307692;;;6.938461538461538;;
15557;SDS011;7880;50.110;9.372;2022-12-18T04:28:27;15.199999999999998;;;7.4769230769230735;;
15557;SDS011;7880;50.110;9.372;2022-12-18T04:33:31;18.207692307692312;;;7.700000000000002;;
15557;SDS011;7880;50.110;9.372;2022-12-18T04:38:35;14.515384615384612;;;6.915384615384612;;
15557;SDS011;7880;50.110;9.372;2022-12-18T04:43:38;18.02307692307692;;;8.476923076923075;;
15557;SDS011;7880;50.110;9.372;2022-12-18T04:48:47;19.25384615384615;;;8.630769230769232;;
15557;SDS011;7880;50.110;9.372;2022-12-18T04:53:59;17.32307692307692;;;8.13846153846154;;
15557;SDS011;7880;50.110;9.372;2022-12-18T04:58:53;23.184615384615388;;;9.0;;
15557;SDS011;7880;50.110;9.372;2022-12-18T05:03:55;21.446153846153848;;;8.892307692307694;;
15557;SDS011;7880;50.110;9.372;2022-12-18T05:09:09;13.592307692307696;;;7.615384615384614;;
15557;SDS011;7880;50.110;9.372;2022-12-18T05:14:03;21.123076923076926;;;9.938461538461537;;
15557;SDS011;7880;50.110;9.372;2022-12-18T05:19:06;17.900000000000002;;;9.076923076923078;;
15557;SDS011;7880;50.110;9.372;2022-12-18T05:24:10;23.169230769230776;;;10.43846153846154;;
15557;SDS011;7880;50.110;9.372;2022-12-18T05:29:21;20.746153846153852;;;9.43846153846154;;
15557;SDS011;7880;50.110;9.372;2022-12-18T05:34:20;24.892307692307686;;;10.623076923076924;;
15557;SDS011;7880;50.110;9.372;2022-12-18T05:39:22;21.10769230769231;;;9.930769230769233;;
15557;SDS011;7880;50.110;9.372;2022-12-18T05:44:29;21.707692307692305;;;9.5;;
15557;SDS011;7880;50.110;9.372;2022-12-18T05:49:30;19.199999999999996;;;8.93846153846154;;
15557;SDS011;7880;50.110;9.372;2022-12-18T05:54:37;21.961538461538456;;;9.915384615384612;;
15557;SDS011;7880;50.110;9.372;2022-12-18T05:59:39;21.26153846153846;;;9.36153846153846;;
15557;SDS011;7880;50.110;9.372;2022-12-18T06:04:43;17.0;;;8.238461538461538;;
15557;SDS011;7880;50.110;9.372;2022-12-18T06:09:50;24.36153846153847;;;9.45384615384615;;
15557;SDS011;7880;50.110;9.372;2022-12-18T06:14:55;22.12307692307692;;;8.900000000000002;;
15557;SDS011;7880;50.110;9.372;2022-12-18T06:19:56;23.41538461538462;;;10.200000000000001;;
15557;SDS011;7880;50.110;9.372;2022-12-18T06:25:02;22.22307692307693;;;8.638461538461538;;
15557;SDS011;7880;50.110;9.372;2022-12-18T06:30:07;22.115384615384617;;;9.446153846153845;;
15557;SDS011;7880;50.110;9.372;2022-12-18T06:35:10;17.107692307692307;;;8.469230769230773;;
15557;SDS011;7880;50.110;9.372;2022-12-18T06:40:15;19.907692307692304;;;10.5;;
15557;SDS011;7880;50.110;9.372;2022-12-18T06:45:18;20.21538461538461;;;9.115384615384615;;
15557;SDS011;7880;50.110;9.372;2022-12-18T06:50:24;18.423076923076927;;;9.538461538461537;;
15557;SDS011;7880;50.110;9.372;2022-12-18T06:55:28;23.669230769230776;;;10.723076923076919;;
15557;SDS011;7880;50.110;9.372;2022-12-18T07:00:31;18.346153846153847;;;8.676923076923076;;
15557;SDS011;7880;50.110;9.372;2022-12-18T07:04:56;22.007692307692306;;;10.915384615384612;;
15557;SDS011;7880;50.110;9.372;2022-12-18T07:09:59;17.26153846153846;;;9.276923076923081;;
15557;SDS011;7880;50.110;9.372;2022-12-18T07:15:03;21.23846153846154;;;9.515384615384615;;
15557;SDS011;7880;50.110;9.372;2022-12-18T07:20:06;17.861538461538466;;;9.299999999999999;;
15557;SDS011;7880;50.110;9.372;2022-12-18T07:25:10;20.307692307692314;;;8.753846153846153;;
15557;SDS011;7880;50.110;9.372;2022-12-18T07:30:12;16.799999999999997;;;8.892307692307694;;
15557;SDS011;7880;50.110;9.372;2022-12-18T07:35:18;15.184615384615388;;;8.27692307692308;;
15557;SDS011;7880;50.110;9.372;2022-12-18T07:40:24;19.546153846153846;;;8.330769230769231;;
15557;SDS011;7880;50.110;9.372;2022-12-18T07:45:25;20.207692307692305;;;9.576923076923077;;
15557;SDS011;7880;50.110;9.372;2022-12-18T07:50:29;23.9;;;10.39230769230769;;
15557;SDS011;7880;50.110;9.372;2022-12-18T07:55:34;20.94615384615384;;;9.53076923076923;;
15557;SDS011;7880;50.110;9.372;2022-12-18T08:00:40;23.507692307692302;;;9.799999999999999;;
15557;SDS011;7880;50.110;9.372;2022-12-18T08:05:42;21.923076923076927;;;11.661538461538461;;
15557;SDS011;7880;50.110;9.372;2022-12-18T08:10:46;25.461538461538456;;;10.738461538461543;;
15557;SDS011;7880;50.110;9.372;2022-12-18T08:15:55;16.68461538461538;;;9.315384615384618;;
15557;SDS011;7880;50.110;9.372;2022-12-18T08:20:55;25.461538461538456;;;10.0;;
15557;SDS011;7880;50.110;9.372;2022-12-18T08:26:04;18.23076923076923;;;9.376923076923076;;
15557;SDS011;7880;50.110;9.372;2022-12-18T08:31:05;25.553846153846163;;;10.599999999999998;;
15557;SDS011;7880;50.110;9.372;2022-12-18T08:36:10;25.461538461538456;;;9.915384615384612;;
15557;SDS011;7880;50.110;9.372;2022-12-18T08:41:15;23.53076923076923;;;11.861538461538466;;
15557;SDS011;7880;50.110;9.372;2022-12-18T08:46:20;23.769230769230766;;;11.56153846153846;;
15557;SDS011;7880;50.110;9.372;2022-12-18T08:51:32;31.41538461538462;;;10.076923076923077;;
15557;SDS011;7880;50.110;9.372;2022-12-18T08:56:35;28.284615384615396;;;11.776923076923081;;
15557;SDS011;7880;50.110;9.372;2022-12-18T09:01:40;29.42307692307693;;;12.876923076923076;;
15557;SDS011;7880;50.110;9.372;2022-12-18T09:06:46;31.63076923076923;;;13.461538461538463;;
15557;SDS011;7880;50.110;9.372;2022-12-18T09:11:50;25.292307692307695;;;12.461538461538463;;
15557;SDS011;7880;50.110;9.372;2022-12-18T09:16:57;28.86923076923077;;;14.300000000000002;;
15557;SDS011;7880;50.110;9.372;2022-12-18T09:22:00;26.807692307692317;;;12.438461538461537;;
15557;SDS011;7880;50.110;9.372;2022-12-18T09:27:09;28.746153846153852;;;12.676923076923078;;
15557;SDS011;7880;50.110;9.372;2022-12-18T09:32:16;31.800000000000008;;;15.599999999999996;;
15557;SDS011;7880;50.110;9.372;2022-12-18T09:37:13;30.692307692307693;;;12.976923076923075;;
15557;SDS011;7880;50.110;9.372;2022-12-18T09:42:20;29.830769230769217;;;12.476923076923075;;
15557;SDS011;7880;50.110;9.372;2022-12-18T09:47:23;25.538461538461533;;;10.723076923076919;;
15557;SDS011;7880;50.110;9.372;2022-12-18T09:52:26;31.092307692307706;;;11.238461538461543;;
15557;SDS011;7880;50.110;9.372;2022-12-18T09:57:32;24.607692307692314;;;10.43846153846154;;
15557;SDS011;7880;50.110;9.372;2022-12-18T10:02:35;29.5;;;11.361538461538466;;
15557;SDS011;7880;50.110;9.372;2022-12-18T10:07:42;27.592307692307706;;;9.176923076923076;;
15557;SDS011;7880;50.110;9.372;2022-12-18T10:12:43;24.77692307692307;;;11.076923076923075;;
15557;SDS011;7880;50.110;9.372;2022-12-18T10:17:49;25.56153846153846;;;11.615384615384617;;
15557;SDS011;7880;50.110;9.372;2022-12-18T10:22:56;37.89999999999999;;;11.592307692307696;;
15557;SDS011;7880;50.110;9.372;2022-12-18T10:28:07;31.23846153846154;;;12.176923076923078;;
15557;SDS011;7880;50.110;9.372;2022-12-18T10:33:04;33.92307692307693;;;12.961538461538463;;
15557;SDS011;7880;50.110;9.372;2022-12-18T10:38:28;49.58461538461537;;;18.938461538461542;;
15557;SDS011;7880;50.110;9.372;2022-12-18T10:43:15;48.08461538461539;;;17.815384615384612;;
15557;SDS011;7880;50.110;9.372;2022-12-18T10:48:24;43.53076923076923;;;14.507692307692306;;
15557;SDS011;7880;50.110;9.372;2022-12-18T10:53:28;71.46153846153847;;;20.599999999999998;;
15557;SDS011;7880;50.110;9.372;2022-12-18T10:58:30;37.56153846153847;;;15.900000000000004;;
15557;SDS011;7880;50.110;9.372;2022-12-18T11:03:36;41.03076923076923;;;13.169230769230769;;
15557;SDS011;7880;50.110;9.372;2022-12-18T11:08:41;52.32307692307692;;;19.423076923076927;;
15557;SDS011;7880;50.110;9.372;2022-12-18T11:13:47;44.57692307692309;;;16.17692307692308;;
15557;SDS011;7880;50.110;9.372;2022-12-18T11:18:46;32.54615384615385;;;13.11538461538462;;
15557;SDS011;7880;50.110;9.372;2022-12-18T11:23:52;32.54615384615385;;;14.06153846153846;;
15557;SDS011;7880;50.110;9.372;2022-12-18T11:29:07;31.77692307692308;;;12.853846153846158;;
15557;SDS011;7880;50.110;9.372;2022-12-18T11:34:00;29.953846153846147;;;13.584615384615388;;
15557;SDS011;7880;50.110;9.372;2022-12-18T11:39:03;36.62307692307692;;;13.461538461538463;;
15557;SDS011;7880;50.110;9.372;2022-12-18T11:44:05;42.123076923076916;;;13.715384615384616;;
15557;SDS011;7880;50.110;9.372;2022-12-18T11:49:10;27.823076923076925;;;12.976923076923075;;
15557;SDS011;7880;50.110;9.372;2022-12-18T11:54:14;37.869230769230775;;;14.638461538461533;;
15557;SDS011;7880;50.110;9.372;2022-12-18T11:59:18;37.53846153846155;;;13.400000000000004;;
15557;SDS011;7880;50.110;9.372;2022-12-18T12:04:58;33.80000000000001;;;13.261538461538455;;
15557;SDS011;7880;50.110;9.372;2022-12-18T12:09:12;46.23076923076923;;;17.599999999999998;;
15557;SDS011;7880;50.110;9.372;2022-12-18T12:14:20;39.23846153846153;;;14.192307692307692;;
15557;SDS011;7880;50.110;9.372;2022-12-18T12:19:24;34.530769230769245;;;13.400000000000004;;
15557;SDS011;7880;50.110;9.372;2022-12-18T12:24:27;37.23076923076924;;;14.815384615384618;;
15557;SDS011;7880;50.110;9.372;2022-12-18T12:29:34;37.07692307692308;;;13.315384615384618;;
15557;SDS011;7880;50.110;9.372;2022-12-18T12:34:34;37.53076923076923;;;14.93846153846154;;
15557;SDS011;7880;50.110;9.372;2022-12-18T12:39:40;33.63076923076923;;;14.023076923076925;;
15557;SDS011;7880;50.110;9.372;2022-12-18T12:44:42;35.26153846153846;;;13.376923076923076;;
15557;SDS011;7880;50.110;9.372;2022-12-18T12:49:50;34.63846153846154;;;13.576923076923073;;
15557;SDS011;7880;50.110;9.372;2022-12-18T12:54:51;35.33846153846153;;;12.838461538461539;;
15557;SDS011;7880;50.110;9.372;2022-12-18T12:59:57;30.946153846153837;;;13.876923076923076;;
15557;SDS011;7880;50.110;9.372;2022-12-18T13:05:01;38.25384615384616;;;13.800000000000002;;
15557;SDS011;7880;50.110;9.372;2022-12-18T13:10:22;34.584615384615375;;;13.538461538461537;;
15557;SDS011;7880;50.110;9.372;2022-12-18T13:15:19;37.453846153846165;;;13.61538461538462;;
15557;SDS011;7880;50.110;9.372;2022-12-18T13:20:21;34.4923076923077;;;14.38461538461538;;
15557;SDS011;7880;50.110;9.372;2022-12-18T13:25:36;37.95384615384615;;;13.215384615384616;;
15557;SDS011;7880;50.110;9.372;2022-12-18T13:30:42;28.930769230769233;;;13.376923076923076;;
15557;SDS011;7880;50.110;9.372;2022-12-18T13:35:37;44.615384615384606;;;14.453846153846147;;
15557;SDS011;7880;50.110;9.372;2022-12-18T13:40:55;35.207692307692305;;;13.923076923076927;;
15557;SDS011;7880;50.110;9.372;2022-12-18T13:45:42;31.992307692307694;;;13.423076923076927;;
15557;SDS011;7880;50.110;9.372;2022-12-18T13:50:42;35.369230769230775;;;14.523076923076925;;
15557;SDS011;7880;50.110;9.372;2022-12-18T13:55:51;43.899999999999984;;;15.876923076923076;;
15557;SDS011;7880;50.110;9.372;2022-12-18T14:00:49;35.23846153846154;;;15.069230769230767;;
15557;SDS011;7880;50.110;9.372;2022-12-18T14:05:55;39.6923076923077;;;15.0;;
15557;SDS011;7880;50.110;9.372;2022-12-18T14:10:57;34.98461538461539;;;15.138461538461533;;
15557;SDS011;7880;50.110;9.372;2022-12-18T14:16:02;49.67692307692308;;;19.938461538461542;;
15557;SDS011;7880;50.110;9.372;2022-12-18T14:21:14;33.17692307692307;;;14.015384615384612;;
15557;SDS011;7880;50.110;9.372;2022-12-18T14:26:22;38.223076923076924;;;15.076923076923073;;
15557;SDS011;7880;50.110;9.372;2022-12-18T14:31:17;49.138461538461534;;;17.38461538461538;;
15557;SDS011;7880;50.110;9.372;2022-12-18T14:36:19;40.03076923076923;;;16.238461538461543;;
15557;SDS011;7880;50.110;9.372;2022-12-18T14:41:23;41.715384615384615;;;19.21538461538461;;
15557;SDS011;7880;50.110;9.372;2022-12-18T14:46:29;35.47692307692308;;;14.130769230769229;;
15557;SDS011;7880;50.110;9.372;2022-12-18T14:51:33;33.2923076923077;;;13.93846153846154;;
15557;SDS011;7880;50.110;9.372;2022-12-18T14:56:42;39.01538461538461;;;15.776923076923081;;
15557;SDS011;7880;50.110;9.372;2022-12-18T15:01:45;45.46923076923077;;;17.87692307692308;;
15557;SDS011;7880;50.110;9.372;2022-12-18T15:06:50;45.153846153846146;;;16.39230769230769;;
15557;SDS011;7880;50.110;9.372;2022-12-18T15:11:58;35.669230769230765;;;13.769230769230765;;
15557;SDS011;7880;50.110;9.372;2022-12-18T15:17:00;36.800000000000004;;;14.253846153846153;;
15557;SDS011;7880;50.110;9.372;2022-12-18T15:22:15;36.03846153846153;;;16.099999999999998;;
15557;SDS011;7880;50.110;9.372;2022-12-18T15:27:29;45.68461538461539;;;18.576923076923073;;
15557;SDS011;7880;50.110;9.372;2022-12-18T15:32:22;43.376923076923084;;;19.438461538461542;;
15557;SDS011;7880;50.110;9.372;2022-12-18T15:37:20;32.35384615384615;;;15.730769230769228;;
15557;SDS011;7880;50.110;9.372;2022-12-18T15:49:14;33.35384615384616;;;14.699999999999998;;
15557;SDS011;7880;50.110;9.372;2022-12-18T15:57:22;35.97692307692308;;;13.484615384615388;;
15557;SDS011;7880;50.110;9.372;2022-12-18T16:02:07;30.053846153846163;;;13.715384615384616;;
15557;SDS011;7880;50.110;9.372;2022-12-18T16:07:09;35.63846153846154;;;14.400000000000004;;
15557;SDS011;7880;50.110;9.372;2022-12-18T16:12:19;36.861538461538466;;;15.015384615384612;;
15557;SDS011;7880;50.110;9.372;2022-12-18T16:17:23;34.61538461538462;;;14.815384615384618;;
15557;SDS011;7880;50.110;9.372;2022-12-18T16:22:22;40.74615384615384;;;14.11538461538462;;
15557;SDS011;7880;50.110;9.372;2022-12-18T16:27:25;38.54615384615385;;;16.015384615384612;;
15557;SDS011;7880;50.110;9.372;2022-12-18T16:32:29;33.707692307692305;;;15.53076923076923;;
15557;SDS011;7880;50.110;9.372;2022-12-18T16:37:33;33.83846153846153;;;14.43846153846154;;
15557;SDS011;7880;50.110;9.372;2022-12-18T16:42:38;36.861538461538466;;;15.17692307692308;;
15557;SDS011;7880;50.110;9.372;2022-12-18T16:47:48;42.34615384615384;;;16.576923076923073;;
15557;SDS011;7880;50.110;9.372;2022-12-18T16:52:49;43.83076923076923;;;15.400000000000004;;
15557;SDS011;7880;50.110;9.372;2022-12-18T16:57:54;32.88461538461538;;;14.515384615384612;;
15557;SDS011;7880;50.110;9.372;2022-12-18T17:03:01;40.36153846153846;;;15.738461538461545;;
15557;SDS011;7880;50.110;9.372;2022-12-18T17:08:03;33.65384615384616;;;13.5;;
15557;SDS011;7880;50.110;9.372;2022-12-18T17:13:07;35.83846153846155;;;14.723076923076919;;
15557;SDS011;7880;50.110;9.372;2022-12-18T17:17:36;42.42307692307692;;;18.823076923076925;;
15557;SDS011;7880;50.110;9.372;2022-12-18T17:22:36;32.907692307692315;;;14.861538461538467;;
15557;SDS011;7880;50.110;9.372;2022-12-18T17:27:40;33.023076923076914;;;14.93846153846154;;
15557;SDS011;7880;50.110;9.372;2022-12-18T17:32:44;44.19999999999998;;;14.800000000000002;;
15557;SDS011;7880;50.110;9.372;2022-12-18T17:37:47;35.16153846153845;;;15.776923076923081;;
15557;SDS011;7880;50.110;9.372;2022-12-18T17:42:54;38.11538461538463;;;15.338461538461539;;
15557;SDS011;7880;50.110;9.372;2022-12-18T17:47:57;33.23076923076924;;;14.015384615384612;;
15557;SDS011;7880;50.110;9.372;2022-12-18T17:53:02;37.16923076923077;;;16.361538461538466;;
15557;SDS011;7880;50.110;9.372;2022-12-18T17:58:06;37.315384615384616;;;15.484615384615388;;
15557;SDS011;7880;50.110;9.372;2022-12-18T18:03:09;33.4076923076923;;;15.715384615384616;;
15557;SDS011;7880;50.110;9.372;2022-12-18T18:08:21;39.89999999999999;;;16.17692307692308;;
15557;SDS011;7880;50.110;9.372;2022-12-18T18:14:29;40.97692307692307;;;15.0;;
15557;SDS011;7880;50.110;9.372;2022-12-18T18:19:14;34.330769230769235;;;14.515384615384612;;
15557;SDS011;7880;50.110;9.372;2022-12-18T18:24:17;35.5923076923077;;;14.661538461538461;;
15557;SDS011;7880;50.110;9.372;2022-12-18T18:29:22;35.784615384615385;;;15.099999999999996;;
15557;SDS011;7880;50.110;9.372;2022-12-18T18:34:24;34.12307692307692;;;15.699999999999998;;
15557;SDS011;7880;50.110;9.372;2022-12-18T18:39:27;37.269230769230774;;;15.300000000000002;;
15557;SDS011;7880;50.110;9.372;2022-12-18T18:44:31;41.43846153846153;;;14.976923076923075;;
15557;SDS011;7880;50.110;9.372;2022-12-18T18:49:36;38.56153846153847;;;15.661538461538461;;
15557;SDS011;7880;50.110;9.372;2022-12-18T18:54:39;32.17692307692308;;;15.300000000000002;;
15557;SDS011;7880;50.110;9.372;2022-12-18T18:59:47;31.6076923076923;;;15.015384615384612;;
15557;SDS011;7880;50.110;9.372;2022-12-18T19:04:52;36.800000000000004;;;15.576923076923073;;
15557;SDS011;7880;50.110;9.372;2022-12-18T19:09:56;41.67692307692308;;;16.32307692307692;;
15557;SDS011;7880;50.110;9.372;2022-12-18T19:15:00;38.14615384615386;;;16.199999999999996;;
15557;SDS011;7880;50.110;9.372;2022-12-18T19:20:04;38.43076923076923;;;15.861538461538467;;
15557;SDS011;7880;50.110;9.372;2022-12-18T19:25:10;37.41538461538463;;;15.761538461538455;;
15557;SDS011;7880;50.110;9.372;2022-12-18T19:30:16;38.46153846153845;;;16.576923076923073;;
15557;SDS011;7880;50.110;9.372;2022-12-18T19:35:16;35.969230769230755;;;15.838461538461539;;
15557;SDS011;7880;50.110;9.372;2022-12-18T19:40:19;40.53076923076924;;;15.753846153846153;;
15557;SDS011;7880;50.110;9.372;2022-12-18T19:45:25;37.16153846153847;;;17.315384615384612;;
15557;SDS011;7880;50.110;9.372;2022-12-18T19:50:28;38.19230769230769;;;16.915384615384614;;
15557;SDS011;7880;50.110;9.372;2022-12-18T19:55:32;43.98461538461539;;;17.784615384615385;;
15557;SDS011;7880;50.110;9.372;2022-12-18T20:00:35;40.11538461538461;;;16.45384615384615;;
15557;SDS011;7880;50.110;9.372;2022-12-18T20:05:41;35.89999999999999;;;14.753846153846153;;
15557;SDS011;7880;50.110;9.372;2022-12-18T20:10:47;41.78461538461538;;;15.67692307692308;;
15557;SDS011;7880;50.110;9.372;2022-12-18T20:15:49;43.26153846153848;;;17.038461538461537;;
15557;SDS011;7880;50.110;9.372;2022-12-18T20:20:58;42.46923076923076;;;17.146153846153847;;
15557;SDS011;7880;50.110;9.372;2022-12-18T20:25:57;37.75384615384616;;;17.16923076923077;;
15557;SDS011;7880;50.110;9.372;2022-12-18T20:31:05;41.74615384615384;;;15.338461538461539;;
15557;SDS011;7880;50.110;9.372;2022-12-18T20:36:09;42.69230769230769;;;17.038461538461537;;
15557;SDS011;7880;50.110;9.372;2022-12-18T20:41:11;34.207692307692305;;;15.715384615384616;;
15557;SDS011;7880;50.110;9.372;2022-12-18T20:46:15;39.199999999999996;;;17.638461538461534;;
15557;SDS011;7880;50.110;9.372;2022-12-18T20:51:20;35.83846153846153;;;16.33846153846154;;
15557;SDS011;7880;50.110;9.372;2022-12-18T20:56:26;44.323076923076925;;;17.33846153846154;;
15557;SDS011;7880;50.110;9.372;2022-12-18T21:01:29;37.03846153846155;;;16.361538461538466;;
15557;SDS011;7880;50.110;9.372;2022-12-18T21:06:36;39.88461538461537;;;18.03076923076923;;
15557;SDS011;7880;50.110;9.372;2022-12-18T21:12:48;37.923076923076934;;;17.076923076923073;;
15557;SDS011;7880;50.110;9.372;2022-12-18T21:17:41;36.10000000000001;;;14.976923076923075;;
15557;SDS011;7880;50.110;9.372;2022-12-18T21:22:35;34.52307692307692;;;15.93846153846154;;
15557;SDS011;7880;50.110;9.372;2022-12-18T21:27:50;40.823076923076925;;;17.43846153846154;;
15557;SDS011;7880;50.110;9.372;2022-12-18T21:32:53;35.26153846153846;;;17.300000000000004;;
15557;SDS011;7880;50.110;9.372;2022-12-18T21:37:48;36.630769230769225;;;15.515384615384612;;
15557;SDS011;7880;50.110;9.372;2022-12-18T21:49:40;37.43846153846153;;;16.576923076923073;;
15557;SDS011;7880;50.110;9.372;2022-12-18T21:54:44;37.369230769230775;;;17.199999999999996;;
15557;SDS011;7880;50.110;9.372;2022-12-18T22:00:01;33.51538461538461;;;15.953846153846147;;
15557;SDS011;7880;50.110;9.372;2022-12-18T22:04:54;44.869230769230775;;;17.56153846153846;;
15557;SDS011;7880;50.110;9.372;2022-12-18T22:10:00;38.16153846153847;;;16.238461538461543;;
15557;SDS011;7880;50.110;9.372;2022-12-18T22:15:14;38.01538461538461;;;15.96923076923077;;
15557;SDS011;7880;50.110;9.372;2022-12-18T22:20:10;37.661538461538456;;;15.730769230769228;;
15557;SDS011;7880;50.110;9.372;2022-12-18T22:23:53;37.415384615384625;;;18.68461538461539;;